createdAt,value
2018-11-23T00:00:13.194Z,17.90
2018-11-23T00:02:42.387Z,18.07
2018-11-23T00:05:10.954Z,17.67
2018-11-23T00:07:39.683Z,17.53
2018-11-23T00:10:11.286Z,17.40
2018-11-23T00:12:39.529Z,18.97
2018-11-23T00:15:11.460Z,17.20
2018-11-23T00:17:40.040Z,18.17
2018-11-23T00:20:11.314Z,16.43
2018-11-23T00:22:40.107Z,16.93
2018-11-23T00:25:10.476Z,16.30
2018-11-23T00:27:39.419Z,17.13
2018-11-23T00:30:10.735Z,17.17
2018-11-23T00:32:39.252Z,16.37
2018-11-23T00:35:10.337Z,17.50
2018-11-23T00:37:38.738Z,17.30
2018-11-23T00:40:09.379Z,20.43
2018-11-23T00:42:37.815Z,17.87
2018-11-23T00:45:07.968Z,17.13
2018-11-23T00:47:36.603Z,17.83
2018-11-23T00:50:05.272Z,15.47
2018-11-23T00:52:33.663Z,17.77
2018-11-23T00:55:02.044Z,17.67
2018-11-23T00:57:30.439Z,16.47
2018-11-23T00:59:58.801Z,16.70
2018-11-23T01:02:27.241Z,17.00
2018-11-23T01:04:55.860Z,17.90
2018-11-23T01:07:24.278Z,17.37
2018-11-23T01:09:52.635Z,17.27
2018-11-23T01:12:21.041Z,16.67
2018-11-23T01:14:49.418Z,18.47
2018-11-23T01:17:17.840Z,16.60
2018-11-23T01:19:47.300Z,16.27
2018-11-23T01:22:15.688Z,16.60
2018-11-23T01:24:44.051Z,17.27
2018-11-23T01:27:12.440Z,18.03
2018-11-23T01:29:40.809Z,17.30
2018-11-23T01:32:09.207Z,18.60
2018-11-23T01:34:37.627Z,17.13
2018-11-23T01:37:06.196Z,23.67
2018-11-23T01:39:34.619Z,17.27
2018-11-23T01:42:03.012Z,17.47
2018-11-23T01:44:35.579Z,17.33
2018-11-23T01:47:03.979Z,16.60
2018-11-23T01:49:32.331Z,17.47
2018-11-23T01:52:00.719Z,17.37
2018-11-23T01:54:29.495Z,19.23
2018-11-23T01:56:57.886Z,18.00
2018-11-23T01:59:26.235Z,16.77
2018-11-23T02:01:54.601Z,17.30
2018-11-23T02:04:22.940Z,16.17
2018-11-23T02:06:51.285Z,16.23
2018-11-23T02:09:19.637Z,17.30
2018-11-23T02:11:47.971Z,17.97
2018-11-23T02:14:16.445Z,18.20
2018-11-23T02:16:44.806Z,17.30
2018-11-23T02:19:13.161Z,17.60
2018-11-23T02:21:41.503Z,18.10
2018-11-23T02:24:09.835Z,17.00
2018-11-23T02:26:38.228Z,21.17
2018-11-23T02:29:06.576Z,16.93
2018-11-23T02:31:37.410Z,17.13
2018-11-23T02:34:07.089Z,17.03
2018-11-23T02:36:35.468Z,16.20
2018-11-23T02:39:04.152Z,15.60
2018-11-23T02:41:32.519Z,16.00
2018-11-23T02:44:00.964Z,16.30
2018-11-23T02:46:29.340Z,16.80
2018-11-23T02:48:57.696Z,17.43
2018-11-23T02:51:26.051Z,17.80
2018-11-23T02:53:54.386Z,19.70
2018-11-23T02:56:22.796Z,18.57
2018-11-23T02:58:51.120Z,17.10
2018-11-23T03:01:19.459Z,20.03
2018-11-23T03:03:47.931Z,17.90
2018-11-23T03:06:16.320Z,18.17
2018-11-23T03:08:44.708Z,20.67
2018-11-23T03:11:13.073Z,17.90
2018-11-23T03:13:41.412Z,21.33
2018-11-23T03:16:09.761Z,22.00
2018-11-23T03:18:38.757Z,19.00
2018-11-23T03:21:07.122Z,19.23
2018-11-23T03:23:35.460Z,20.53
2018-11-23T03:26:03.858Z,17.50
2018-11-23T03:28:32.186Z,24.43
2018-11-23T03:31:00.535Z,18.67
2018-11-23T03:33:28.897Z,22.33
2018-11-23T03:35:57.259Z,18.30
2018-11-23T03:38:25.636Z,17.23
2018-11-23T03:40:54.030Z,17.77
2018-11-23T03:43:22.397Z,20.87
2018-11-23T03:45:50.776Z,18.23
2018-11-23T03:48:19.152Z,19.73
2018-11-23T03:50:47.495Z,29.47
2018-11-23T03:53:15.892Z,21.40
2018-11-23T03:55:44.299Z,19.47
2018-11-23T03:58:12.701Z,22.63
2018-11-23T04:00:41.161Z,17.43
2018-11-23T04:03:09.562Z,16.93
2018-11-23T04:05:37.960Z,16.53
2018-11-23T04:08:06.384Z,16.93
2018-11-23T04:10:34.967Z,16.90
2018-11-23T04:13:03.378Z,17.80
2018-11-23T04:15:31.852Z,16.37
2018-11-23T04:18:00.268Z,16.63
2018-11-23T04:20:28.964Z,17.43
2018-11-23T04:22:57.363Z,18.60
2018-11-23T04:25:25.764Z,19.10
2018-11-23T04:27:54.192Z,17.60
2018-11-23T04:30:22.570Z,16.40
2018-11-23T04:32:50.975Z,18.70
2018-11-23T04:35:19.926Z,16.53
2018-11-23T04:37:48.835Z,16.53
2018-11-23T04:40:18.323Z,17.23
2018-11-23T04:42:46.727Z,17.37
2018-11-23T04:45:15.340Z,17.07
2018-11-23T04:47:43.876Z,16.63
2018-11-23T04:50:14.186Z,18.37
2018-11-23T04:52:42.934Z,17.37
2018-11-23T04:55:11.588Z,17.30
2018-11-23T04:57:40.101Z,16.93
2018-11-23T05:00:13.863Z,16.87
2018-11-23T05:02:42.692Z,15.80
2018-11-23T05:05:11.656Z,17.07
2018-11-23T05:07:40.183Z,18.27
2018-11-23T05:10:10.583Z,17.20
2018-11-23T05:12:39.153Z,16.67
2018-11-23T05:15:08.552Z,17.40
2018-11-23T05:17:37.240Z,16.57
2018-11-23T05:20:06.492Z,17.13
2018-11-23T05:22:35.226Z,16.83
2018-11-23T05:25:03.627Z,17.47
2018-11-23T05:27:32.104Z,16.50
2018-11-23T05:30:00.507Z,16.40
2018-11-23T05:32:28.923Z,31.37
2018-11-23T05:34:57.327Z,18.27
2018-11-23T05:37:25.841Z,17.83
2018-11-23T05:39:54.257Z,19.23
2018-11-23T05:42:22.623Z,21.23
2018-11-23T05:44:51.191Z,18.13
2018-11-23T05:47:20.276Z,17.80
2018-11-23T05:49:48.692Z,17.77
2018-11-23T05:52:17.052Z,16.77
2018-11-23T05:54:45.419Z,18.73
2018-11-23T05:57:13.845Z,18.47
2018-11-23T05:59:42.255Z,19.73
2018-11-23T06:02:10.706Z,20.17
2018-11-23T06:04:39.106Z,18.93
2018-11-23T06:07:07.483Z,19.67
2018-11-23T06:09:36.203Z,19.40
2018-11-23T06:12:04.627Z,18.03
2018-11-23T06:14:32.998Z,20.97
2018-11-23T06:17:01.404Z,19.83
2018-11-23T06:19:29.747Z,20.07
2018-11-23T06:21:58.146Z,21.97
2018-11-23T06:24:31.977Z,20.73
2018-11-23T06:26:55.214Z,19.60
2018-11-23T06:29:23.685Z,20.70
2018-11-23T06:31:52.268Z,20.60
2018-11-23T06:34:20.612Z,21.50
2018-11-23T06:36:48.971Z,20.00
2018-11-23T06:39:17.870Z,21.37
2018-11-23T06:41:47.519Z,23.00
2018-11-23T06:44:16.511Z,22.97
2018-11-23T06:46:44.855Z,21.33
2018-11-23T06:49:13.326Z,21.27
2018-11-23T06:51:41.739Z,20.47
2018-11-23T06:54:14.403Z,19.70
2018-11-23T06:56:38.624Z,22.03
2018-11-23T06:59:07.039Z,20.73
2018-11-23T07:01:35.406Z,21.17
2018-11-23T07:04:03.803Z,20.13
2018-11-23T07:06:32.171Z,21.23
2018-11-23T07:09:00.561Z,20.53
2018-11-23T07:11:29.046Z,21.03
2018-11-23T07:14:03.757Z,20.50
2018-11-23T07:16:25.793Z,21.40
2018-11-23T07:18:54.194Z,22.43
2018-11-23T07:21:22.555Z,20.93
2018-11-23T07:23:50.975Z,19.83
2018-11-23T07:26:19.344Z,21.07
2018-11-23T07:28:47.703Z,21.43
2018-11-23T07:31:16.063Z,20.10
2018-11-23T07:33:44.611Z,20.13
2018-11-23T07:36:12.991Z,22.00
2018-11-23T07:38:41.479Z,22.63
2018-11-23T07:41:21.216Z,23.63
2018-11-23T07:43:49.623Z,22.83
2018-11-23T07:46:17.994Z,22.23
2018-11-23T07:48:46.354Z,22.07
2018-11-23T07:51:14.693Z,21.03
2018-11-23T07:53:43.095Z,21.83
2018-11-23T07:56:11.515Z,20.30
2018-11-23T07:58:39.907Z,20.60
2018-11-23T08:01:08.319Z,20.50
2018-11-23T08:03:36.757Z,18.50
2018-11-23T08:06:05.339Z,18.50
2018-11-23T08:08:33.724Z,17.47
2018-11-23T08:11:06.321Z,18.53
2018-11-23T08:13:35.027Z,19.33
2018-11-23T08:16:03.438Z,19.73
2018-11-23T08:18:32.025Z,21.13
2018-11-23T08:21:00.504Z,20.07
2018-11-23T08:23:28.989Z,19.50
2018-11-23T08:25:57.336Z,20.77
2018-11-23T08:28:25.725Z,21.63
2018-11-23T08:30:54.096Z,22.60
2018-11-23T08:33:22.512Z,21.17
2018-11-23T08:35:50.867Z,22.47
2018-11-23T08:38:19.284Z,20.87
2018-11-23T08:40:47.638Z,21.43
2018-11-23T08:43:16.134Z,21.20
2018-11-23T08:45:44.496Z,20.80
2018-11-23T08:48:13.387Z,18.80
2018-11-23T08:50:41.873Z,20.77
2018-11-23T08:53:10.252Z,20.27
2018-11-23T08:55:39.379Z,21.40
2018-11-23T08:58:07.827Z,19.57
2018-11-23T09:00:36.243Z,19.63
2018-11-23T09:03:04.703Z,20.40
2018-11-23T09:05:33.133Z,21.50
2018-11-23T09:08:01.591Z,20.87
2018-11-23T09:10:31.158Z,20.37
2018-11-23T09:13:01.382Z,21.27
2018-11-23T09:15:29.791Z,22.50
2018-11-23T09:17:58.440Z,21.57
2018-11-23T09:20:26.846Z,20.50
2018-11-23T09:22:55.291Z,21.30
2018-11-23T09:25:24.255Z,20.60
2018-11-23T09:27:52.842Z,23.70
2018-11-23T09:30:23.598Z,23.63
2018-11-23T09:32:52.781Z,21.70
2018-11-23T09:35:21.255Z,22.70
2018-11-23T09:37:50.039Z,22.57
2018-11-23T09:40:20.041Z,22.07
2018-11-23T09:42:48.790Z,22.60
2018-11-23T09:45:18.838Z,22.23
2018-11-23T09:47:48.271Z,20.67
2018-11-23T09:50:18.122Z,22.23
2018-11-23T09:52:47.727Z,21.20
2018-11-23T09:55:16.414Z,21.87
2018-11-23T09:57:44.897Z,20.17
2018-11-23T10:00:21.244Z,20.77
2018-11-23T10:02:50.753Z,26.00
2018-11-23T10:05:19.613Z,21.30
2018-11-23T10:07:49.544Z,20.60
2018-11-23T10:10:18.927Z,19.93
2018-11-23T10:12:47.313Z,20.27
2018-11-23T10:15:17.068Z,19.30
2018-11-23T10:17:45.540Z,19.43
2018-11-23T10:20:17.382Z,20.33
2018-11-23T10:22:46.141Z,19.73
2018-11-23T10:25:16.358Z,18.50
2018-11-23T10:27:45.072Z,21.10
2018-11-23T10:30:19.305Z,18.90
2018-11-23T10:32:48.774Z,20.20
2018-11-23T10:35:17.229Z,21.07
2018-11-23T10:37:46.774Z,21.80
2018-11-23T10:40:17.957Z,18.63
2018-11-23T10:42:46.380Z,19.73
2018-11-23T10:45:17.517Z,18.37
2018-11-23T10:47:46.620Z,19.87
2018-11-23T10:50:16.763Z,20.13
2018-11-23T10:52:45.332Z,21.50
2018-11-23T10:55:16.183Z,20.77
2018-11-23T10:57:44.636Z,20.87
2018-11-23T11:00:19.468Z,22.70
2018-11-23T11:02:53.264Z,20.23
2018-11-23T11:05:27.081Z,19.03
2018-11-23T11:07:57.017Z,19.47
2018-11-23T11:10:25.476Z,21.53
2018-11-23T11:12:53.875Z,18.90
2018-11-23T11:15:22.470Z,19.50
2018-11-23T11:17:50.857Z,19.60
2018-11-23T11:20:19.741Z,17.70
2018-11-23T11:22:48.267Z,18.87
2018-11-23T11:25:16.672Z,20.13
2018-11-23T11:27:45.052Z,19.30
2018-11-23T11:30:15.499Z,19.17
2018-11-23T11:32:44.267Z,21.87
2018-11-23T11:35:13.185Z,19.70
2018-11-23T11:37:42.108Z,20.17
2018-11-23T11:40:12.623Z,20.87
2018-11-23T11:42:41.599Z,21.13
2018-11-23T11:45:12.061Z,18.23
2018-11-23T11:47:40.801Z,19.87
2018-11-23T11:50:10.407Z,22.37
2018-11-23T11:52:39.919Z,19.53
2018-11-23T11:55:10.181Z,21.00
2018-11-23T11:57:39.150Z,21.23
2018-11-23T12:00:10.453Z,21.07
2018-11-23T12:02:38.817Z,19.67
2018-11-23T12:05:08.486Z,20.70
2018-11-23T12:07:36.972Z,20.73
2018-11-23T12:10:07.478Z,20.60
2018-11-23T12:12:35.959Z,20.93
2018-11-23T12:15:04.840Z,20.40
2018-11-23T12:17:33.219Z,20.07
2018-11-23T12:20:01.696Z,19.70
2018-11-23T12:22:30.100Z,23.63
2018-11-23T12:24:59.435Z,19.57
2018-11-23T12:27:29.495Z,24.80
2018-11-23T12:29:56.379Z,22.27
2018-11-23T12:32:24.770Z,21.13
2018-11-23T12:34:53.431Z,20.13
2018-11-23T12:37:22.261Z,23.87
2018-11-23T12:39:50.911Z,26.80
2018-11-23T12:42:19.293Z,22.43
2018-11-23T12:44:47.707Z,23.60
2018-11-23T12:47:16.117Z,23.80
2018-11-23T12:49:44.594Z,22.07
2018-11-23T12:52:12.971Z,19.43
2018-11-23T12:54:41.463Z,24.63
2018-11-23T12:57:09.867Z,26.73
2018-11-23T12:59:38.288Z,20.17
2018-11-23T13:02:06.784Z,20.50
2018-11-23T13:04:35.227Z,25.20
2018-11-23T13:07:03.628Z,31.87
2018-11-23T13:09:32.064Z,26.67
2018-11-23T13:12:00.443Z,20.43
2018-11-23T13:14:28.880Z,20.03
2018-11-23T13:16:57.339Z,20.93
2018-11-23T13:19:25.807Z,28.70
2018-11-23T13:21:54.245Z,29.87
2018-11-23T13:24:22.707Z,22.13
2018-11-23T13:26:51.185Z,24.10
2018-11-23T13:29:19.668Z,27.50
2018-11-23T13:31:48.120Z,22.10
2018-11-23T13:34:16.607Z,21.90
2018-11-23T13:36:45.069Z,20.87
2018-11-23T13:39:13.535Z,21.43
2018-11-23T13:41:42.014Z,23.40
2018-11-23T13:44:10.493Z,25.90
2018-11-23T13:46:38.960Z,33.80
2018-11-23T13:49:07.411Z,33.27
2018-11-23T13:51:35.899Z,29.83
2018-11-23T13:54:04.445Z,25.37
2018-11-23T13:56:32.985Z,25.03
2018-11-23T13:59:01.437Z,40.07
2018-11-23T14:01:29.852Z,31.27
2018-11-23T14:03:58.320Z,34.97
2018-11-23T14:06:26.796Z,28.90
2018-11-23T14:08:55.254Z,36.40
2018-11-23T14:11:23.717Z,39.60
2018-11-23T14:13:52.164Z,32.00
2018-11-23T14:16:20.675Z,30.87
2018-11-23T14:18:49.079Z,43.03
2018-11-23T14:21:17.568Z,25.50
2018-11-23T14:23:46.027Z,30.80
2018-11-23T14:26:14.629Z,30.70
2018-11-23T14:28:43.258Z,29.13
2018-11-23T14:31:11.874Z,25.00
2018-11-23T14:33:40.286Z,23.50
2018-11-23T14:36:08.796Z,22.50
2018-11-23T14:38:37.199Z,23.77
2018-11-23T14:41:05.698Z,22.73
2018-11-23T14:43:34.122Z,23.67
2018-11-23T14:46:02.525Z,22.93
2018-11-23T14:48:30.955Z,28.87
2018-11-23T14:51:00.068Z,24.83
2018-11-23T14:53:28.472Z,41.07
2018-11-23T14:55:56.929Z,38.57
2018-11-23T14:58:25.340Z,36.40
2018-11-23T15:00:53.808Z,60.60
2018-11-23T15:03:22.189Z,41.37
2018-11-23T15:05:50.588Z,35.47
2018-11-23T15:08:18.983Z,37.10
2018-11-23T15:10:47.479Z,46.40
2018-11-23T15:13:17.337Z,43.50
2018-11-23T15:15:45.778Z,30.60
2018-11-23T15:18:14.144Z,25.37
2018-11-23T15:20:44.432Z,50.57
2018-11-23T15:23:16.357Z,29.67
2018-11-23T15:25:45.000Z,31.40
2018-11-23T15:28:13.995Z,26.80
2018-11-23T15:30:43.332Z,25.50
2018-11-23T15:33:13.432Z,23.50
2018-11-23T15:35:42.860Z,24.37
2018-11-23T15:38:13.265Z,24.00
2018-11-23T15:40:42.601Z,25.97
2018-11-23T15:43:12.360Z,23.03
2018-11-23T15:45:40.758Z,22.43
2018-11-23T15:48:09.856Z,23.03
2018-11-23T15:50:39.660Z,22.67
2018-11-23T15:53:09.582Z,22.53
2018-11-23T15:55:39.048Z,22.90
2018-11-23T15:58:09.209Z,21.73
2018-11-23T16:00:38.895Z,36.63
2018-11-23T16:03:08.794Z,27.47
2018-11-23T16:05:37.419Z,25.83
2018-11-23T16:08:07.723Z,22.87
2018-11-23T16:10:37.163Z,23.30
2018-11-23T16:13:11.361Z,27.77
2018-11-23T16:15:35.729Z,23.20
2018-11-23T16:18:04.591Z,21.03
2018-11-23T16:20:35.373Z,22.60
2018-11-23T16:23:05.741Z,26.77
2018-11-23T16:25:34.679Z,25.37
2018-11-23T16:28:04.451Z,23.97
2018-11-23T16:30:34.295Z,22.60
2018-11-23T16:33:04.187Z,22.40
2018-11-23T16:35:35.162Z,21.43
2018-11-23T16:38:05.388Z,21.73
2018-11-23T16:40:35.069Z,22.17
2018-11-23T16:43:03.934Z,20.03
2018-11-23T16:45:33.568Z,22.43
2018-11-23T16:48:03.252Z,22.07
2018-11-23T16:50:32.025Z,25.23
2018-11-23T16:53:00.738Z,26.97
2018-11-23T16:55:29.346Z,26.20
2018-11-23T16:57:59.264Z,40.53
2018-11-23T17:00:28.979Z,37.57
2018-11-23T17:02:58.644Z,38.00
2018-11-23T17:05:28.692Z,44.77
2018-11-23T17:07:57.081Z,22.90
2018-11-23T17:10:25.526Z,35.87
2018-11-23T17:12:53.959Z,28.00
2018-11-23T17:15:23.851Z,37.77
2018-11-23T17:17:52.287Z,25.63
2018-11-23T17:20:22.067Z,36.00
2018-11-23T17:22:51.404Z,31.33
2018-11-23T17:25:21.147Z,16.57
2018-11-23T17:27:49.764Z,15.37
2018-11-23T17:30:21.275Z,17.47
2018-11-23T17:32:49.694Z,13.87
2018-11-23T17:35:18.133Z,14.43
2018-11-23T17:37:46.582Z,31.23
2018-11-23T17:40:16.741Z,29.17
2018-11-23T17:42:45.195Z,29.20
2018-11-23T17:45:16.388Z,19.30
2018-11-23T17:47:44.819Z,38.00
2018-11-23T17:50:15.260Z,23.90
2018-11-23T17:52:43.998Z,17.23
2018-11-23T17:55:13.069Z,17.13
2018-11-23T17:57:42.160Z,16.23
2018-11-23T18:00:14.204Z,17.67
2018-11-23T18:02:43.152Z,22.10
2018-11-23T18:05:18.976Z,20.90
2018-11-23T18:07:47.927Z,17.17
2018-11-23T18:10:18.910Z,19.40
2018-11-23T18:12:47.827Z,16.47
2018-11-23T18:15:18.707Z,20.00
2018-11-23T18:17:47.773Z,20.43
2018-11-23T18:20:17.412Z,21.50
2018-11-23T18:22:46.421Z,20.90
2018-11-23T18:25:46.652Z,21.33
2018-11-23T18:28:15.127Z,22.00
2018-11-23T18:30:43.662Z,20.00
2018-11-23T18:33:12.187Z,20.57
2018-11-23T18:35:40.682Z,20.67
2018-11-23T18:38:09.172Z,21.73
2018-11-23T18:40:37.894Z,22.37
2018-11-23T18:43:06.505Z,26.43
2018-11-23T18:45:35.147Z,22.00
2018-11-23T18:48:03.661Z,20.17
2018-11-23T18:50:32.125Z,45.40
2018-11-23T18:53:00.667Z,29.87
2018-11-23T18:55:29.184Z,20.80
2018-11-23T18:57:58.764Z,32.30
2018-11-23T19:00:27.245Z,42.93
2018-11-23T19:02:55.836Z,43.93
2018-11-23T19:05:26.437Z,26.67
2018-11-23T19:07:54.961Z,28.23
2018-11-23T19:10:23.613Z,39.03
2018-11-23T19:12:52.118Z,33.53
2018-11-23T19:15:25.571Z,22.50
2018-11-23T19:17:49.177Z,20.17
2018-11-23T19:20:22.468Z,17.67
2018-11-23T19:22:54.034Z,14.03
2018-11-23T19:25:22.500Z,51.73
2018-11-23T19:27:51.139Z,69.17
2018-11-23T19:30:28.663Z,36.20
2018-11-23T19:32:52.576Z,42.20
2018-11-23T19:35:21.102Z,42.17
2018-11-23T19:37:49.918Z,43.03
2018-11-23T19:40:18.400Z,53.23
2018-11-23T19:42:46.912Z,27.63
2018-11-23T19:45:17.792Z,18.63
2018-11-23T19:50:26.041Z,14.10
2018-11-23T19:52:54.782Z,11.63
2018-11-23T19:55:23.314Z,23.77
2018-11-23T19:57:51.895Z,32.00
2018-11-23T20:00:26.892Z,42.63
2018-11-23T20:02:55.452Z,23.50
2018-11-23T20:05:24.073Z,36.03
2018-11-23T20:07:55.275Z,35.70
2018-11-23T20:10:24.561Z,31.40
2018-11-23T20:12:55.085Z,29.00
2018-11-23T20:15:23.938Z,29.73
2018-11-23T20:17:52.478Z,14.60
2018-11-23T20:20:21.078Z,10.77
2018-11-23T20:22:50.511Z,20.23
2018-11-23T20:25:20.029Z,36.43
2018-11-23T20:27:51.314Z,35.77
2018-11-23T20:30:20.313Z,35.20
2018-11-23T20:32:49.035Z,18.53
2018-11-23T20:35:18.841Z,11.87
2018-11-23T20:37:47.350Z,11.13
2018-11-23T20:40:17.880Z,26.47
2018-11-23T20:42:46.433Z,24.20
2018-11-23T20:45:21.595Z,23.77
2018-11-23T20:47:50.104Z,19.10
2018-11-23T20:50:18.838Z,32.30
2018-11-23T20:52:47.301Z,14.50
2018-11-23T20:55:22.672Z,10.83
2018-11-23T20:57:51.181Z,15.43
2018-11-23T21:00:20.505Z,18.20
2018-11-23T21:02:52.133Z,11.03
2018-11-23T21:05:21.317Z,19.73
2018-11-23T21:07:50.346Z,10.37
2018-11-23T21:10:25.912Z,14.37
2018-11-23T21:12:55.085Z,13.23
2018-11-23T21:15:27.660Z,13.87
2018-11-23T21:17:57.055Z,11.23
2018-11-23T21:20:25.794Z,10.53
2018-11-23T21:22:54.380Z,11.60
2018-11-23T21:25:22.821Z,11.83
2018-11-23T21:27:51.310Z,10.20
2018-11-23T21:30:21.073Z,10.40
2018-11-23T21:32:49.911Z,12.57
2018-11-23T21:35:18.956Z,12.13
2018-11-23T21:37:47.386Z,14.37
2018-11-23T21:40:16.763Z,10.10
2018-11-23T21:42:45.587Z,11.23
2018-11-23T21:45:15.583Z,12.07
2018-11-23T21:47:44.116Z,11.70
2018-11-23T21:50:16.725Z,13.60
2018-11-23T21:52:45.435Z,12.90
2018-11-23T21:55:23.088Z,12.57
2018-11-23T21:57:52.260Z,12.13
2018-11-23T22:00:20.682Z,12.30
2018-11-23T22:02:49.132Z,13.37
2018-11-23T22:05:17.606Z,11.50
2018-11-23T22:07:46.515Z,12.73
2018-11-23T22:10:19.131Z,11.97
2018-11-23T22:12:48.399Z,12.00
2018-11-23T22:15:18.847Z,13.17
2018-11-23T22:17:48.790Z,12.87
2018-11-23T22:20:18.403Z,13.43
2018-11-23T22:22:46.821Z,12.30
2018-11-23T22:25:20.976Z,12.17
2018-11-23T22:27:50.591Z,13.23
2018-11-23T22:30:23.697Z,13.13
2018-11-23T22:32:52.238Z,13.27
2018-11-23T22:35:20.689Z,12.47
2018-11-23T22:37:49.257Z,15.00
2018-11-23T22:40:19.418Z,12.60
2018-11-23T22:42:50.203Z,13.47
2018-11-23T22:45:18.698Z,14.37
2018-11-23T22:47:47.173Z,13.63
2018-11-23T22:50:18.953Z,13.97
2018-11-23T22:52:47.905Z,11.73
2018-11-23T22:55:16.940Z,12.27
2018-11-23T22:57:45.405Z,12.13
2018-11-23T23:00:29.019Z,14.37
2018-11-23T23:02:57.614Z,14.13
2018-11-23T23:05:26.198Z,15.47
2018-11-23T23:07:54.783Z,16.03
2018-11-23T23:10:23.269Z,16.97
2018-11-23T23:12:51.782Z,25.07
2018-11-23T23:15:20.268Z,15.87
2018-11-23T23:17:48.760Z,12.50
2018-11-23T23:20:20.416Z,12.77
2018-11-23T23:22:48.847Z,13.63
2018-11-23T23:25:17.473Z,12.67
2018-11-23T23:27:46.225Z,13.67
2018-11-23T23:30:16.814Z,13.43
2018-11-23T23:32:46.192Z,14.00
2018-11-23T23:35:16.138Z,13.17
2018-11-23T23:37:44.592Z,12.67
2018-11-23T23:40:15.277Z,12.53
2018-11-23T23:42:43.803Z,13.03
2018-11-23T23:45:13.675Z,13.33
2018-11-23T23:47:42.148Z,13.37
2018-11-23T23:50:14.765Z,13.90
2018-11-23T23:52:43.215Z,12.97
2018-11-23T23:55:11.702Z,13.87
2018-11-23T23:57:41.230Z,14.27
